createdAt,value
2019-03-13T00:01:10.369Z,5.90
2019-03-13T00:03:41.134Z,5.60
2019-03-13T00:06:13.159Z,5.50
2019-03-13T00:08:43.883Z,5.60
2019-03-13T00:11:14.644Z,5.70
2019-03-13T00:13:45.422Z,5.80
2019-03-13T00:16:16.123Z,5.80
2019-03-13T00:18:46.904Z,5.70
2019-03-13T00:21:17.503Z,5.70
2019-03-13T00:23:48.139Z,5.60
2019-03-13T00:26:19.235Z,5.70
2019-03-13T00:28:49.977Z,5.70
2019-03-13T00:31:20.808Z,5.70
2019-03-13T00:33:51.823Z,5.60
2019-03-13T00:36:22.589Z,5.50
2019-03-13T00:38:53.321Z,5.50
2019-03-13T00:41:24.343Z,5.50
2019-03-13T00:43:55.092Z,5.60
2019-03-13T00:46:25.833Z,5.70
2019-03-13T00:48:56.789Z,5.90
2019-03-13T00:51:27.469Z,6.00
2019-03-13T00:53:58.193Z,5.90
2019-03-13T00:56:28.923Z,5.90
2019-03-13T00:58:59.578Z,5.90
2019-03-13T01:02:01.017Z,6.00
2019-03-13T01:04:35.648Z,5.90
2019-03-13T01:07:08.849Z,5.90
2019-03-13T01:09:40.074Z,5.90
2019-03-13T01:12:10.854Z,6.00
2019-03-13T01:14:41.628Z,5.80
2019-03-13T01:17:12.328Z,5.70
2019-03-13T01:19:43.010Z,5.80
2019-03-13T01:22:14.023Z,5.90
2019-03-13T01:24:44.767Z,6.00
2019-03-13T01:27:15.474Z,5.90
2019-03-13T01:29:46.383Z,5.80
2019-03-13T01:32:41.633Z,5.60
2019-03-13T01:35:30.909Z,5.40
2019-03-13T01:38:01.639Z,5.10
2019-03-13T01:40:32.323Z,4.90
2019-03-13T01:43:03.319Z,4.90
2019-03-13T01:45:33.980Z,4.80
2019-03-13T01:48:04.668Z,4.80
2019-03-13T01:50:35.583Z,4.70
2019-03-13T01:53:06.308Z,4.60
2019-03-13T01:55:37.043Z,4.50
2019-03-13T01:58:07.728Z,4.50
2019-03-13T02:00:38.399Z,4.40
2019-03-13T02:03:09.118Z,4.50
2019-03-13T02:05:40.009Z,4.40
2019-03-13T02:08:10.678Z,4.30
2019-03-13T02:10:41.355Z,4.20
2019-03-13T02:13:12.228Z,4.10
2019-03-13T02:15:42.939Z,4.00
2019-03-13T02:18:13.689Z,4.00
2019-03-13T02:20:44.459Z,3.90
2019-03-13T02:23:15.209Z,3.90
2019-03-13T02:25:45.835Z,3.70
2019-03-13T02:28:16.564Z,3.60
2019-03-13T02:30:47.186Z,3.40
2019-03-13T02:33:17.804Z,3.40
2019-03-13T02:35:48.714Z,3.20
2019-03-13T02:38:19.468Z,3.10
2019-03-13T02:40:50.233Z,3.10
2019-03-13T02:43:21.164Z,3.10
2019-03-13T02:45:51.995Z,3.20
2019-03-13T02:48:22.694Z,3.20
2019-03-13T02:50:53.487Z,3.20
2019-03-13T02:53:24.129Z,2.80
2019-03-13T02:55:54.830Z,2.90
2019-03-13T02:58:25.660Z,3.10
2019-03-13T03:01:05.976Z,3.30
2019-03-13T03:03:40.396Z,3.30
2019-03-13T03:06:11.170Z,3.20
2019-03-13T03:08:42.024Z,3.20
2019-03-13T03:11:13.338Z,3.30
2019-03-13T03:13:43.946Z,3.30
2019-03-13T03:16:14.579Z,3.30
2019-03-13T03:18:45.460Z,3.20
2019-03-13T03:21:16.091Z,3.20
2019-03-13T03:23:46.879Z,3.10
2019-03-13T03:26:17.674Z,3.00
2019-03-13T03:28:48.374Z,3.00
2019-03-13T03:31:18.995Z,3.10
2019-03-13T03:34:03.408Z,3.20
2019-03-13T03:36:34.318Z,3.20
2019-03-13T03:39:06.069Z,3.10
2019-03-13T03:41:36.866Z,3.00
2019-03-13T03:44:07.531Z,2.90
2019-03-13T03:46:38.375Z,2.80
2019-03-13T03:49:09.436Z,2.80
2019-03-13T03:51:40.079Z,2.80
2019-03-13T03:54:10.872Z,2.70
2019-03-13T03:56:41.830Z,2.80
2019-03-13T03:59:12.739Z,2.70
2019-03-13T04:01:43.601Z,2.80
2019-03-13T04:04:14.585Z,2.70
2019-03-13T04:06:45.384Z,2.70
2019-03-13T04:09:16.263Z,2.50
2019-03-13T04:11:47.288Z,2.60
2019-03-13T04:14:17.950Z,2.60
2019-03-13T04:16:48.586Z,2.30
2019-03-13T04:19:19.406Z,2.30
2019-03-13T04:21:50.173Z,2.50
2019-03-13T04:24:21.035Z,2.50
2019-03-13T04:26:51.999Z,2.30
2019-03-13T04:29:22.665Z,2.60
2019-03-13T04:31:53.365Z,2.80
2019-03-13T04:34:24.344Z,2.90
2019-03-13T04:36:55.095Z,2.90
2019-03-13T04:39:25.952Z,3.00
2019-03-13T04:41:56.834Z,3.10
2019-03-13T04:44:27.460Z,3.10
2019-03-13T04:46:58.244Z,3.10
2019-03-13T04:49:29.148Z,3.10
2019-03-13T04:51:59.783Z,3.00
2019-03-13T04:54:30.539Z,3.20
2019-03-13T04:57:01.349Z,3.40
2019-03-13T04:59:32.227Z,3.50
2019-03-13T05:02:02.935Z,3.60
2019-03-13T05:04:33.789Z,3.60
2019-03-13T05:07:04.567Z,3.60
2019-03-13T05:09:40.109Z,3.80
2019-03-13T05:12:10.894Z,4.00
2019-03-13T05:14:41.714Z,4.10
2019-03-13T05:17:12.539Z,4.20
2019-03-13T05:19:43.269Z,4.30
2019-03-13T05:22:14.029Z,4.20
2019-03-13T05:24:44.799Z,4.30
2019-03-13T05:27:15.564Z,4.30
2019-03-13T05:29:46.230Z,4.40
2019-03-13T05:32:17.299Z,4.50
2019-03-13T05:34:48.064Z,4.50
2019-03-13T05:37:18.776Z,4.40
2019-03-13T05:39:49.679Z,4.40
2019-03-13T05:42:20.504Z,4.50
2019-03-13T05:44:51.244Z,4.50
2019-03-13T05:47:22.139Z,4.50
2019-03-13T05:49:52.959Z,4.50
2019-03-13T05:52:23.654Z,4.50
2019-03-13T05:54:54.605Z,4.50
2019-03-13T05:57:25.483Z,4.50
2019-03-13T05:59:56.364Z,4.50
2019-03-13T06:02:27.228Z,4.50
2019-03-13T06:04:58.044Z,4.60
2019-03-13T06:07:28.879Z,4.60
2019-03-13T06:09:59.677Z,4.70
2019-03-13T06:12:30.529Z,4.70
2019-03-13T06:15:03.571Z,4.80
2019-03-13T06:17:34.124Z,5.00
2019-03-13T06:20:05.206Z,4.90
2019-03-13T06:22:36.032Z,4.90
2019-03-13T06:25:07.245Z,5.00
2019-03-13T06:27:38.015Z,5.10
2019-03-13T06:30:09.750Z,5.20
2019-03-13T06:32:40.464Z,5.20
2019-03-13T06:35:11.547Z,5.10
2019-03-13T06:37:42.339Z,4.90
2019-03-13T06:40:13.299Z,5.00
2019-03-13T06:42:43.984Z,5.00
2019-03-13T06:45:15.503Z,4.90
2019-03-13T06:47:46.265Z,5.00
2019-03-13T06:50:18.370Z,5.00
2019-03-13T06:52:49.256Z,5.00
2019-03-13T06:55:20.169Z,5.10
2019-03-13T06:57:51.089Z,5.20
2019-03-13T07:00:39.629Z,5.20
2019-03-13T07:03:34.759Z,5.30
2019-03-13T07:06:27.476Z,5.40
2019-03-13T07:09:04.304Z,5.50
2019-03-13T07:11:56.944Z,5.60
2019-03-13T07:14:49.277Z,5.70
2019-03-13T07:17:34.249Z,5.90
2019-03-13T07:20:13.361Z,6.00
2019-03-13T07:26:03.834Z,6.20
2019-03-13T07:29:11.542Z,6.30
2019-03-13T07:32:10.199Z,6.40
2019-03-13T07:34:58.595Z,6.40
2019-03-13T07:37:48.679Z,6.40
2019-03-13T07:40:41.389Z,6.40
2019-03-13T07:43:43.716Z,6.40
2019-03-13T07:46:43.880Z,6.40
2019-03-13T07:49:36.184Z,6.50
2019-03-13T07:52:23.527Z,6.70
2019-03-13T07:55:11.744Z,6.80
2019-03-13T07:57:59.159Z,7.00
2019-03-13T08:00:56.707Z,7.20
2019-03-13T08:03:46.124Z,7.30
2019-03-13T08:06:51.190Z,7.40
2019-03-13T08:09:56.614Z,7.50
2019-03-13T08:12:49.361Z,7.70
2019-03-13T08:15:37.249Z,7.80
2019-03-13T08:18:28.254Z,8.10
2019-03-13T08:21:18.654Z,8.30
2019-03-13T08:24:20.419Z,8.50
2019-03-13T08:27:09.009Z,8.70
2019-03-13T08:30:13.773Z,8.90
2019-03-13T08:33:05.380Z,9.00
2019-03-13T08:35:57.951Z,9.00
2019-03-13T08:38:50.039Z,9.00
2019-03-13T08:41:52.358Z,8.90
2019-03-13T08:44:48.064Z,8.90
2019-03-13T08:47:45.144Z,9.20
2019-03-13T08:50:27.711Z,9.30
2019-03-13T08:53:20.749Z,9.60
2019-03-13T08:56:18.299Z,9.60
2019-03-13T08:59:04.274Z,9.60
2019-03-13T09:01:58.848Z,9.80
2019-03-13T09:04:59.086Z,9.90
2019-03-13T09:07:57.839Z,9.80
2019-03-13T09:10:43.927Z,9.90
2019-03-13T09:13:37.784Z,9.90
2019-03-13T09:16:34.065Z,10.10
2019-03-13T09:19:24.123Z,10.00
2019-03-13T09:21:55.399Z,10.20
2019-03-13T09:24:37.026Z,10.30
2019-03-13T09:27:37.949Z,10.20
2019-03-13T09:30:48.188Z,10.00
2019-03-13T09:33:49.764Z,9.90
2019-03-13T09:36:42.805Z,10.20
2019-03-13T09:39:41.040Z,10.50
2019-03-13T09:42:38.239Z,10.60
2019-03-13T09:45:43.094Z,10.70
2019-03-13T09:48:45.074Z,10.70
2019-03-13T09:51:35.449Z,11.00
2019-03-13T09:54:45.893Z,11.10
2019-03-13T10:01:23.626Z,11.10
2019-03-13T10:04:21.539Z,11.40
2019-03-13T10:07:25.769Z,11.20
2019-03-13T10:10:14.715Z,11.20
2019-03-13T10:13:06.774Z,11.50
2019-03-13T10:16:07.214Z,11.50
2019-03-13T10:19:27.740Z,11.40
2019-03-13T10:22:32.979Z,11.70
2019-03-13T10:25:34.979Z,11.80
2019-03-13T10:28:31.924Z,12.00
2019-03-13T10:31:39.153Z,12.00
2019-03-13T10:35:00.047Z,12.20
2019-03-13T10:40:57.254Z,12.10
2019-03-13T10:43:57.589Z,12.20
2019-03-13T10:46:50.563Z,12.30
2019-03-13T10:49:46.154Z,12.40
2019-03-13T10:52:44.914Z,12.50
2019-03-13T10:55:48.024Z,12.40
2019-03-13T10:58:47.854Z,12.50
2019-03-13T11:01:47.454Z,12.60
2019-03-13T11:05:19.483Z,12.40
2019-03-13T11:08:10.954Z,12.50
2019-03-13T11:11:05.047Z,12.90
2019-03-13T11:14:15.671Z,12.90
2019-03-13T11:17:11.005Z,12.70
2019-03-13T11:20:04.619Z,12.90
2019-03-13T11:22:55.184Z,12.90
2019-03-13T11:25:49.554Z,13.30
2019-03-13T11:28:52.518Z,13.00
2019-03-13T11:32:39.719Z,12.80
2019-03-13T11:35:56.984Z,13.00
2019-03-13T11:38:54.314Z,13.10
2019-03-13T11:41:53.111Z,13.00
2019-03-13T11:44:49.804Z,13.10
2019-03-13T11:55:48.560Z,13.50
2019-03-13T12:06:01.354Z,13.30
2019-03-13T12:13:40.804Z,13.90
2019-03-13T12:16:51.749Z,14.00
2019-03-13T12:23:33.039Z,13.70
2019-03-13T12:26:28.844Z,13.80
2019-03-13T12:29:23.080Z,13.70
2019-03-13T12:32:32.329Z,14.00
2019-03-13T12:35:26.049Z,14.10
2019-03-13T12:38:37.019Z,14.50
2019-03-13T12:41:34.926Z,14.80
2019-03-13T12:44:36.512Z,14.30
2019-03-13T12:47:45.359Z,13.90
2019-03-13T12:54:30.004Z,14.50
2019-03-13T12:57:24.371Z,15.00
2019-03-13T13:00:44.259Z,14.90
2019-03-13T13:04:22.499Z,15.00
2019-03-13T13:07:09.120Z,15.20
2019-03-13T13:10:14.663Z,15.90
2019-03-13T13:13:12.512Z,16.10
2019-03-13T13:16:11.004Z,15.80
2019-03-13T13:19:13.294Z,15.70
2019-03-13T13:22:05.678Z,15.50
2019-03-13T13:29:14.688Z,15.10
2019-03-13T13:39:09.809Z,16.00
2019-03-13T13:46:03.889Z,16.60
2019-03-13T14:00:11.679Z,16.80
2019-03-13T14:03:11.939Z,17.40
2019-03-13T14:06:49.867Z,17.80
2019-03-13T14:09:53.350Z,18.20
2019-03-13T14:13:07.238Z,18.40
2019-03-13T14:19:26.979Z,17.80
2019-03-13T14:22:08.174Z,17.50
2019-03-13T14:24:41.899Z,17.90
2019-03-13T14:27:15.162Z,17.80
2019-03-13T14:29:47.839Z,18.80
2019-03-13T14:32:25.883Z,19.40
2019-03-13T14:34:59.474Z,19.80
2019-03-13T14:37:31.254Z,20.10
2019-03-13T14:40:03.875Z,19.40
2019-03-13T14:42:35.089Z,20.50
2019-03-13T14:45:08.104Z,18.40
2019-03-13T14:47:47.417Z,17.90
2019-03-13T14:50:25.764Z,18.80
2019-03-13T14:52:58.990Z,20.00
2019-03-13T14:55:33.044Z,20.30
2019-03-13T14:58:04.254Z,19.50
2019-03-13T15:00:37.990Z,18.80
2019-03-13T15:03:12.254Z,19.90
2019-03-13T15:05:47.549Z,20.60
2019-03-13T15:08:20.784Z,19.50
2019-03-13T15:10:52.439Z,19.10
2019-03-13T15:13:24.174Z,19.40
2019-03-13T15:15:55.389Z,20.40
2019-03-13T15:18:34.169Z,21.50
2019-03-13T15:21:05.447Z,22.50
2019-03-13T15:23:37.442Z,21.20
2019-03-13T15:26:09.014Z,20.90
2019-03-13T15:28:40.900Z,20.60
2019-03-13T15:31:12.236Z,22.10
2019-03-13T15:33:43.535Z,21.70
2019-03-13T15:36:16.060Z,21.50
2019-03-13T15:38:51.544Z,22.30
2019-03-13T15:41:22.950Z,23.10
2019-03-13T15:43:54.427Z,22.60
2019-03-13T15:46:32.786Z,20.50
2019-03-13T15:49:04.539Z,20.70
2019-03-13T15:51:38.822Z,21.50
2019-03-13T15:54:09.794Z,22.00
2019-03-13T15:56:41.144Z,22.60
2019-03-13T15:59:12.592Z,23.00
2019-03-13T16:01:43.786Z,23.20
2019-03-13T16:04:15.189Z,21.60
2019-03-13T16:06:53.479Z,20.00
2019-03-13T16:09:24.939Z,19.50
2019-03-13T16:11:56.459Z,19.20
2019-03-13T16:14:27.824Z,19.30
2019-03-13T16:16:59.044Z,19.30
2019-03-13T16:19:30.409Z,18.90
2019-03-13T16:22:02.414Z,18.80
2019-03-13T16:24:33.594Z,19.40
2019-03-13T16:27:04.755Z,19.30
2019-03-13T16:29:40.694Z,18.60
2019-03-13T16:32:13.549Z,18.80
2019-03-13T16:34:48.485Z,18.70
2019-03-13T16:37:22.104Z,18.80
2019-03-13T16:39:54.659Z,18.90
2019-03-13T16:42:26.209Z,18.70
2019-03-13T16:44:57.530Z,19.00
2019-03-13T16:47:28.632Z,18.30
2019-03-13T16:49:59.824Z,17.60
2019-03-13T16:52:31.044Z,17.20
2019-03-13T16:55:02.489Z,17.20
2019-03-13T16:57:34.620Z,16.80
2019-03-13T17:00:06.195Z,16.40
2019-03-13T17:02:37.514Z,16.30
2019-03-13T17:05:11.525Z,15.80
2019-03-13T17:07:42.950Z,15.90
2019-03-13T17:10:16.094Z,15.60
2019-03-13T17:12:49.794Z,15.40
2019-03-13T17:15:22.710Z,15.40
2019-03-13T17:17:55.819Z,14.90
2019-03-13T17:20:30.494Z,14.70
2019-03-13T17:23:05.324Z,14.10
2019-03-13T17:25:37.209Z,13.70
2019-03-13T17:28:09.210Z,13.70
2019-03-13T17:30:41.399Z,13.40
2019-03-13T17:33:12.804Z,13.30
2019-03-13T17:35:45.634Z,13.30
2019-03-13T17:38:19.997Z,13.40
2019-03-13T17:40:52.064Z,12.90
2019-03-13T17:43:38.130Z,12.50
2019-03-13T17:46:02.323Z,12.20
2019-03-13T17:48:39.472Z,11.80
2019-03-13T17:51:49.084Z,11.50
2019-03-13T17:54:28.804Z,11.30
2019-03-13T17:57:11.489Z,11.10
2019-03-13T18:00:01.919Z,11.00
2019-03-13T18:02:34.139Z,10.70
2019-03-13T18:05:07.527Z,10.60
2019-03-13T18:07:43.284Z,10.50
2019-03-13T18:10:17.286Z,10.30
2019-03-13T18:12:51.295Z,10.20
2019-03-13T18:15:23.639Z,10.20
2019-03-13T18:17:58.295Z,10.10
2019-03-13T18:20:51.609Z,10.00
2019-03-13T18:23:25.919Z,9.90
2019-03-13T18:26:05.254Z,9.70
2019-03-13T18:28:38.319Z,9.60
2019-03-13T18:31:27.137Z,9.50
2019-03-13T18:33:59.119Z,9.30
2019-03-13T18:36:30.283Z,9.20
2019-03-13T18:39:02.289Z,9.20
2019-03-13T18:41:33.509Z,9.20
2019-03-13T18:44:04.829Z,9.20
2019-03-13T18:46:37.195Z,9.10
2019-03-13T18:52:47.590Z,8.70
2019-03-13T18:55:27.219Z,8.60
2019-03-13T18:58:04.039Z,8.60
2019-03-13T19:11:58.784Z,8.40
2019-03-13T19:14:33.746Z,8.20
2019-03-13T19:17:06.219Z,8.20
2019-03-13T19:19:37.894Z,8.10
2019-03-13T19:25:12.517Z,7.90
2019-03-13T19:27:44.144Z,7.80
2019-03-13T19:30:27.182Z,7.70
2019-03-13T19:32:58.732Z,7.70
2019-03-13T19:35:30.809Z,7.70
2019-03-13T19:38:05.234Z,7.60
2019-03-13T19:40:42.568Z,7.50
2019-03-13T19:43:14.794Z,7.30
2019-03-13T19:45:46.405Z,7.30
2019-03-13T19:48:18.204Z,7.20
2019-03-13T19:50:49.444Z,7.20
2019-03-13T19:53:21.384Z,7.10
2019-03-13T19:55:52.654Z,7.00
2019-03-13T19:58:24.331Z,6.90
2019-03-13T20:00:55.689Z,6.80
2019-03-13T20:03:26.854Z,6.80
2019-03-13T20:05:58.265Z,6.70
2019-03-13T20:08:29.770Z,6.70
2019-03-13T20:11:01.454Z,6.70
2019-03-13T20:13:33.964Z,6.60
2019-03-13T20:16:05.324Z,6.60
2019-03-13T20:18:36.739Z,6.50
2019-03-13T20:21:08.508Z,6.50
2019-03-13T20:23:40.004Z,6.40
2019-03-13T20:26:11.564Z,6.40
2019-03-13T20:28:46.055Z,6.40
2019-03-13T20:31:16.469Z,6.30
2019-03-13T20:33:48.384Z,6.30
2019-03-13T20:36:19.811Z,6.20
2019-03-13T20:38:51.055Z,6.10
2019-03-13T20:41:22.079Z,6.00
2019-03-13T20:43:53.294Z,6.10
2019-03-13T20:46:24.349Z,6.00
2019-03-13T20:48:55.619Z,6.00
2019-03-13T20:51:26.635Z,5.90
2019-03-13T20:53:57.654Z,5.80
2019-03-13T20:56:28.764Z,5.70
2019-03-13T20:59:01.554Z,5.60
2019-03-13T21:01:32.557Z,5.60
2019-03-13T21:04:07.290Z,5.70
2019-03-13T21:06:36.984Z,5.70
2019-03-13T21:09:09.295Z,5.70
2019-03-13T21:11:40.420Z,5.70
2019-03-13T21:14:13.859Z,5.70
2019-03-13T21:16:45.910Z,5.70
2019-03-13T21:19:18.450Z,5.80
2019-03-13T21:21:49.901Z,5.70
2019-03-13T21:24:22.139Z,5.60
2019-03-13T21:26:54.360Z,5.50
2019-03-13T21:29:26.419Z,5.50
2019-03-13T21:32:00.135Z,5.40
2019-03-13T21:34:32.192Z,5.40
2019-03-13T21:37:04.314Z,5.50
2019-03-13T21:39:35.569Z,5.50
2019-03-13T21:42:07.129Z,5.40
2019-03-13T21:44:38.364Z,5.20
2019-03-13T21:47:09.913Z,5.20
2019-03-13T21:49:41.885Z,5.00
2019-03-13T21:52:13.626Z,4.60
2019-03-13T21:54:45.296Z,4.50
2019-03-13T21:57:16.604Z,4.50
2019-03-13T21:59:47.719Z,4.70
2019-03-13T22:02:19.018Z,4.70
2019-03-13T22:04:56.044Z,4.70
2019-03-13T22:07:27.547Z,4.70
2019-03-13T22:09:58.770Z,4.70
2019-03-13T22:12:30.109Z,4.70
2019-03-13T22:15:01.339Z,4.70
2019-03-13T22:17:32.494Z,4.50
2019-03-13T22:20:03.829Z,3.80
2019-03-13T22:22:35.034Z,3.00
2019-03-13T22:25:06.329Z,3.60
2019-03-13T22:27:37.371Z,4.00
2019-03-13T22:30:10.586Z,3.60
2019-03-13T22:32:41.564Z,3.10
2019-03-13T22:35:12.629Z,3.30
2019-03-13T22:37:43.669Z,3.50
2019-03-13T22:40:14.825Z,3.50
2019-03-13T22:42:45.834Z,3.50
2019-03-13T22:45:17.955Z,3.40
2019-03-13T22:47:48.982Z,3.50
2019-03-13T22:50:20.458Z,3.50
2019-03-13T22:52:51.535Z,3.50
2019-03-13T22:55:22.530Z,3.20
2019-03-13T22:57:53.744Z,2.90
2019-03-13T23:01:07.555Z,2.00
2019-03-13T23:03:40.516Z,2.30
2019-03-13T23:06:11.589Z,3.10
2019-03-13T23:08:42.649Z,3.00
2019-03-13T23:11:13.612Z,3.00
2019-03-13T23:13:44.619Z,3.10
2019-03-13T23:16:15.645Z,3.20
2019-03-13T23:18:46.571Z,2.90
2019-03-13T23:21:17.636Z,3.00
2019-03-13T23:23:48.690Z,2.80
2019-03-13T23:26:19.627Z,3.00
2019-03-13T23:28:50.774Z,3.40
2019-03-13T23:31:21.896Z,3.50
2019-03-13T23:33:52.934Z,3.20
2019-03-13T23:36:24.244Z,3.30
2019-03-13T23:38:55.414Z,3.20
2019-03-13T23:41:26.459Z,3.20
2019-03-13T23:43:57.586Z,3.40
2019-03-13T23:46:28.466Z,3.40
2019-03-13T23:48:59.460Z,3.30
2019-03-13T23:51:30.438Z,3.30
2019-03-13T23:54:01.327Z,3.20
2019-03-13T23:56:32.264Z,3.10
2019-03-13T23:59:03.249Z,3.10
